AZU5443 SBCT-SSUV
Flight info
| Callsign | AZU5443 |
|---|---|
| Flight time | 1h 18m |
| Altitude | 8000 |
| Route | KOTIL DCT 2605S05038W |
| Aircraft | C208/L-SDFGR/C |
Departure
| Time | 2026-05-05 13:08 |
|---|---|
| Airport | Curitiba-Afonso Pena International Airport (SBCT) |
Arrival
| Time | 2026-05-05 14:26 |
|---|---|
| Airport | José Cleto Airport (SSUV) |
| Time | Latitude | Longitude | Altitude | Speed | Heading |
|---|---|---|---|---|---|
| 2026-05-05 12:49 | -25.53333 | -49.17354 | 2985 ft | 0 kts | 222° |
| 2026-05-05 13:02 | -25.53340 | -49.17359 | 2985 ft | 5 kts | 202° |
| 2026-05-05 13:02 | -25.53378 | -49.17319 | 2985 ft | 11 kts | 122° |
| 2026-05-05 13:02 | -25.53380 | -49.17315 | 2985 ft | 0 kts | 121° |
| 2026-05-05 13:03 | -25.53387 | -49.17294 | 2984 ft | 9 kts | 92° |
| 2026-05-05 13:03 | -25.53373 | -49.17233 | 2984 ft | 8 kts | 83° |
| 2026-05-05 13:03 | -25.53425 | -49.17157 | 2983 ft | 15 kts | 137° |
| 2026-05-05 13:04 | -25.53494 | -49.17085 | 2983 ft | 15 kts | 135° |
| 2026-05-05 13:04 | -25.53564 | -49.17008 | 2982 ft | 17 kts | 134° |
| 2026-05-05 13:04 | -25.53612 | -49.16893 | 2981 ft | 3 kts | 85° |
| 2026-05-05 13:05 | -25.53611 | -49.16890 | 2981 ft | 3 kts | 85° |
| 2026-05-05 13:05 | -25.53607 | -49.16830 | 2980 ft | 0 kts | 85° |
| 2026-05-05 13:05 | -25.53605 | -49.16812 | 2980 ft | 6 kts | 85° |
| 2026-05-05 13:06 | -25.53578 | -49.16757 | 2979 ft | 8 kts | 338° |
| 2026-05-05 13:06 | -25.53511 | -49.16835 | 2980 ft | 23 kts | 314° |
| 2026-05-05 13:06 | -25.53307 | -49.17056 | 2983 ft | 57 kts | 314° |
| 2026-05-05 13:06 | -25.52970 | -49.17422 | 3005 ft | 74 kts | 314° |
| 2026-05-05 13:07 | -25.52593 | -49.17846 | 3057 ft | 77 kts | 314° |
| 2026-05-05 13:07 | -25.52268 | -49.18305 | 3143 ft | 78 kts | 305° |
| 2026-05-05 13:07 | -25.52246 | -49.18871 | 3207 ft | 82 kts | 237° |
| 2026-05-05 13:07 | -25.52725 | -49.19183 | 3296 ft | 85 kts | 187° |
| 2026-05-05 13:08 | -25.53345 | -49.19085 | 3337 ft | 94 kts | 161° |
| 2026-05-05 13:08 | -25.54033 | -49.18801 | 3362 ft | 112 kts | 154° |
| 2026-05-05 13:08 | -25.54782 | -49.18612 | 3611 ft | 102 kts | 176° |
| 2026-05-05 13:08 | -25.55496 | -49.18465 | 3771 ft | 101 kts | 172° |
| 2026-05-05 13:09 | -25.56003 | -49.18795 | 3903 ft | 91 kts | 259° |
| 2026-05-05 13:09 | -25.56084 | -49.19554 | 3954 ft | 105 kts | 269° |
| 2026-05-05 13:09 | -25.56298 | -49.20256 | 4307 ft | 91 kts | 253° |
| 2026-05-05 13:09 | -25.56536 | -49.20893 | 4578 ft | 87 kts | 253° |
| 2026-05-05 13:10 | -25.56759 | -49.21503 | 4816 ft | 86 kts | 256° |
| 2026-05-05 13:10 | -25.56966 | -49.22126 | 5004 ft | 88 kts | 259° |
| 2026-05-05 13:10 | -25.57144 | -49.22847 | 5109 ft | 101 kts | 264° |
| 2026-05-05 13:10 | -25.57273 | -49.23499 | 5506 ft | 77 kts | 264° |
| 2026-05-05 13:11 | -25.57627 | -49.24101 | 5475 ft | 109 kts | 243° |
| 2026-05-05 13:11 | -25.57879 | -49.24946 | 5442 ft | 128 kts | 259° |
| 2026-05-05 13:11 | -25.58201 | -49.25942 | 5419 ft | 144 kts | 254° |
| 2026-05-05 13:11 | -25.58578 | -49.27016 | 5404 ft | 154 kts | 253° |
| 2026-05-05 13:12 | -25.58980 | -49.28135 | 5411 ft | 157 kts | 253° |
| 2026-05-05 13:12 | -25.59391 | -49.29251 | 5436 ft | 158 kts | 252° |
| 2026-05-05 13:12 | -25.59809 | -49.30374 | 5510 ft | 155 kts | 253° |
| 2026-05-05 13:12 | -25.60212 | -49.31476 | 5620 ft | 152 kts | 253° |
| 2026-05-05 13:13 | -25.60607 | -49.32547 | 5773 ft | 147 kts | 253° |
| 2026-05-05 13:13 | -25.60982 | -49.33571 | 5937 ft | 142 kts | 253° |
| 2026-05-05 13:13 | -25.61344 | -49.34541 | 6096 ft | 126 kts | 252° |
| 2026-05-05 13:13 | -25.61659 | -49.35369 | 6243 ft | 110 kts | 254° |
| 2026-05-05 13:14 | -25.61933 | -49.36106 | 6385 ft | 97 kts | 255° |
| 2026-05-05 13:14 | -25.62175 | -49.36750 | 6535 ft | 84 kts | 256° |
| 2026-05-05 13:14 | -25.62397 | -49.37366 | 6549 ft | 94 kts | 257° |
| 2026-05-05 13:14 | -25.62653 | -49.38105 | 6620 ft | 110 kts | 255° |
| 2026-05-05 13:15 | -25.62945 | -49.38925 | 6748 ft | 117 kts | 255° |
| 2026-05-05 13:15 | -25.63256 | -49.39783 | 6876 ft | 124 kts | 254° |
| 2026-05-05 13:15 | -25.63587 | -49.40690 | 7001 ft | 128 kts | 253° |
| 2026-05-05 13:15 | -25.63925 | -49.41614 | 7125 ft | 132 kts | 253° |
| 2026-05-05 13:16 | -25.64270 | -49.42560 | 7249 ft | 135 kts | 253° |
| 2026-05-05 13:16 | -25.64629 | -49.43544 | 7370 ft | 138 kts | 253° |
| 2026-05-05 13:16 | -25.64992 | -49.44536 | 7499 ft | 140 kts | 252° |
| 2026-05-05 13:16 | -25.65356 | -49.45531 | 7609 ft | 141 kts | 252° |
| 2026-05-05 13:17 | -25.65727 | -49.46548 | 7734 ft | 143 kts | 252° |
| 2026-05-05 13:17 | -25.66104 | -49.47577 | 7854 ft | 144 kts | 252° |
| 2026-05-05 13:17 | -25.66487 | -49.48633 | 7870 ft | 151 kts | 252° |
| 2026-05-05 13:17 | -25.66883 | -49.49723 | 7871 ft | 156 kts | 252° |
| 2026-05-05 13:18 | -25.67294 | -49.50855 | 7876 ft | 159 kts | 252° |
| 2026-05-05 13:18 | -25.67713 | -49.52007 | 7871 ft | 162 kts | 252° |
| 2026-05-05 13:18 | -25.68133 | -49.53158 | 7873 ft | 163 kts | 251° |
| 2026-05-05 13:18 | -25.68563 | -49.54337 | 7877 ft | 163 kts | 252° |
| 2026-05-05 13:19 | -25.68987 | -49.55500 | 7876 ft | 164 kts | 252° |
| 2026-05-05 13:19 | -25.69420 | -49.56684 | 7874 ft | 165 kts | 252° |
| 2026-05-05 13:19 | -25.69843 | -49.57847 | 7878 ft | 164 kts | 251° |
| 2026-05-05 13:19 | -25.70274 | -49.59029 | 7877 ft | 165 kts | 252° |
| 2026-05-05 13:20 | -25.70708 | -49.60217 | 7872 ft | 166 kts | 252° |
| 2026-05-05 13:20 | -25.71135 | -49.61397 | 7872 ft | 167 kts | 252° |
| 2026-05-05 13:20 | -25.71572 | -49.62602 | 7868 ft | 168 kts | 251° |
| 2026-05-05 13:20 | -25.72010 | -49.63799 | 7866 ft | 166 kts | 252° |
| 2026-05-05 13:21 | -25.72438 | -49.64975 | 7867 ft | 167 kts | 252° |
| 2026-05-05 13:21 | -25.72867 | -49.66160 | 7867 ft | 166 kts | 251° |
| 2026-05-05 13:21 | -25.73301 | -49.67351 | 7867 ft | 166 kts | 251° |
| 2026-05-05 13:21 | -25.73736 | -49.68541 | 7861 ft | 166 kts | 251° |
| 2026-05-05 13:22 | -25.74166 | -49.69732 | 7862 ft | 165 kts | 251° |
| 2026-05-05 13:22 | -25.74595 | -49.70916 | 7865 ft | 166 kts | 251° |
| 2026-05-05 13:22 | -25.75024 | -49.72097 | 7870 ft | 166 kts | 252° |
| 2026-05-05 13:22 | -25.75453 | -49.73283 | 7868 ft | 165 kts | 252° |
| 2026-05-05 13:23 | -25.75884 | -49.74472 | 7869 ft | 166 kts | 252° |
| 2026-05-05 13:23 | -25.76317 | -49.75661 | 7865 ft | 167 kts | 252° |
| 2026-05-05 13:23 | -25.76749 | -49.76855 | 7865 ft | 166 kts | 252° |
| 2026-05-05 13:23 | -25.77176 | -49.78029 | 7863 ft | 165 kts | 251° |
| 2026-05-05 13:24 | -25.77607 | -49.79213 | 7869 ft | 165 kts | 252° |
| 2026-05-05 13:24 | -25.78033 | -49.80395 | 7873 ft | 167 kts | 252° |
| 2026-05-05 13:24 | -25.78468 | -49.81598 | 7865 ft | 168 kts | 252° |
| 2026-05-05 13:24 | -25.78899 | -49.82786 | 7866 ft | 167 kts | 252° |
| 2026-05-05 13:25 | -25.79335 | -49.83992 | 7875 ft | 169 kts | 252° |
| 2026-05-05 13:25 | -25.79772 | -49.85197 | 7874 ft | 170 kts | 252° |
| 2026-05-05 13:25 | -25.80213 | -49.86419 | 7876 ft | 170 kts | 252° |
| 2026-05-05 13:25 | -25.80648 | -49.87629 | 7871 ft | 170 kts | 252° |
| 2026-05-05 13:26 | -25.81092 | -49.88845 | 7867 ft | 168 kts | 252° |
| 2026-05-05 13:26 | -25.81520 | -49.90029 | 7869 ft | 166 kts | 252° |
| 2026-05-05 13:26 | -25.81951 | -49.91221 | 7867 ft | 166 kts | 252° |
| 2026-05-05 13:26 | -25.82382 | -49.92410 | 7872 ft | 166 kts | 252° |
| 2026-05-05 13:27 | -25.82808 | -49.93599 | 7873 ft | 167 kts | 252° |
| 2026-05-05 13:27 | -25.83239 | -49.94792 | 7870 ft | 168 kts | 252° |
| 2026-05-05 13:27 | -25.83672 | -49.95994 | 7874 ft | 167 kts | 252° |
| 2026-05-05 13:27 | -25.84109 | -49.97203 | 7878 ft | 169 kts | 252° |
| 2026-05-05 13:28 | -25.84545 | -49.98412 | 7878 ft | 168 kts | 252° |
| 2026-05-05 13:28 | -25.84979 | -49.99616 | 7873 ft | 167 kts | 252° |
| 2026-05-05 13:28 | -25.85410 | -50.00809 | 7870 ft | 165 kts | 252° |
| 2026-05-05 13:28 | -25.85831 | -50.01981 | 7871 ft | 167 kts | 252° |
| 2026-05-05 13:29 | -25.86265 | -50.03189 | 7873 ft | 169 kts | 252° |
| 2026-05-05 13:29 | -25.86702 | -50.04403 | 7877 ft | 169 kts | 252° |
| 2026-05-05 13:29 | -25.87143 | -50.05627 | 7870 ft | 170 kts | 252° |
| 2026-05-05 13:29 | -25.87576 | -50.06827 | 7870 ft | 168 kts | 252° |
| 2026-05-05 13:30 | -25.88008 | -50.08012 | 7975 ft | 162 kts | 252° |
| 2026-05-05 13:30 | -25.88421 | -50.09156 | 8095 ft | 157 kts | 252° |
| 2026-05-05 13:30 | -25.88824 | -50.10280 | 8210 ft | 155 kts | 252° |
| 2026-05-05 13:30 | -25.89222 | -50.11387 | 8268 ft | 155 kts | 252° |
| 2026-05-05 13:31 | -25.89620 | -50.12501 | 8273 ft | 158 kts | 252° |
| 2026-05-05 13:31 | -25.90030 | -50.13643 | 8275 ft | 160 kts | 252° |
| 2026-05-05 13:31 | -25.90444 | -50.14802 | 8277 ft | 163 kts | 252° |
| 2026-05-05 13:31 | -25.90866 | -50.15983 | 8275 ft | 165 kts | 252° |
| 2026-05-05 13:32 | -25.91294 | -50.17167 | 8279 ft | 165 kts | 252° |
| 2026-05-05 13:32 | -25.91715 | -50.18350 | 8275 ft | 166 kts | 252° |
| 2026-05-05 13:32 | -25.92147 | -50.19548 | 8276 ft | 166 kts | 252° |
| 2026-05-05 13:32 | -25.92571 | -50.20730 | 8276 ft | 166 kts | 252° |
| 2026-05-05 13:33 | -25.93003 | -50.21934 | 8274 ft | 166 kts | 252° |
| 2026-05-05 13:33 | -25.93425 | -50.23118 | 8274 ft | 166 kts | 252° |
| 2026-05-05 13:33 | -25.93856 | -50.24315 | 8275 ft | 166 kts | 252° |
| 2026-05-05 13:33 | -25.94285 | -50.25510 | 8274 ft | 166 kts | 252° |
| 2026-05-05 13:34 | -25.94707 | -50.26691 | 8272 ft | 166 kts | 252° |
| 2026-05-05 13:34 | -25.95134 | -50.27885 | 8270 ft | 166 kts | 252° |
| 2026-05-05 13:34 | -25.95561 | -50.29078 | 8270 ft | 165 kts | 252° |
| 2026-05-05 13:34 | -25.95983 | -50.30256 | 8268 ft | 166 kts | 252° |
| 2026-05-05 13:35 | -25.96410 | -50.31449 | 8268 ft | 165 kts | 252° |
| 2026-05-05 13:35 | -25.96837 | -50.32644 | 8266 ft | 165 kts | 252° |
| 2026-05-05 13:35 | -25.97257 | -50.33821 | 8270 ft | 166 kts | 252° |
| 2026-05-05 13:35 | -25.97685 | -50.35015 | 8268 ft | 166 kts | 252° |
| 2026-05-05 13:36 | -25.98109 | -50.36204 | 8267 ft | 165 kts | 252° |
| 2026-05-05 13:36 | -25.98393 | -50.36996 | 8266 ft | 165 kts | 252° |
| 2026-05-05 13:36 | -25.98956 | -50.38574 | 8267 ft | 165 kts | 252° |
| 2026-05-05 13:36 | -25.99380 | -50.39765 | 8266 ft | 165 kts | 252° |
| 2026-05-05 13:37 | -25.99807 | -50.40956 | 8269 ft | 166 kts | 252° |
| 2026-05-05 13:37 | -26.00088 | -50.41747 | 8268 ft | 166 kts | 252° |
| 2026-05-05 13:37 | -26.00651 | -50.43329 | 8273 ft | 165 kts | 252° |
| 2026-05-05 13:37 | -26.00933 | -50.44117 | 8273 ft | 165 kts | 252° |
| 2026-05-05 13:38 | -26.01357 | -50.45307 | 8266 ft | 165 kts | 252° |
| 2026-05-05 13:38 | -26.01783 | -50.46501 | 8265 ft | 165 kts | 252° |
| 2026-05-05 13:38 | -26.02206 | -50.47688 | 8266 ft | 165 kts | 252° |
| 2026-05-05 13:38 | -26.02623 | -50.48864 | 8266 ft | 165 kts | 252° |
| 2026-05-05 13:39 | -26.03047 | -50.50051 | 8265 ft | 164 kts | 252° |
| 2026-05-05 13:39 | -26.03469 | -50.51230 | 8266 ft | 164 kts | 252° |
| 2026-05-05 13:39 | -26.03889 | -50.52418 | 8266 ft | 165 kts | 252° |
| 2026-05-05 13:39 | -26.04306 | -50.53590 | 8266 ft | 165 kts | 252° |
| 2026-05-05 13:40 | -26.04731 | -50.54785 | 8265 ft | 165 kts | 252° |
| 2026-05-05 13:40 | -26.05149 | -50.55963 | 8265 ft | 165 kts | 253° |
| 2026-05-05 13:40 | -26.05574 | -50.57160 | 8264 ft | 165 kts | 252° |
| 2026-05-05 13:40 | -26.05993 | -50.58339 | 8264 ft | 165 kts | 252° |
| 2026-05-05 13:41 | -26.06417 | -50.59532 | 8265 ft | 165 kts | 252° |
| 2026-05-05 13:41 | -26.06838 | -50.60720 | 8267 ft | 165 kts | 253° |
| 2026-05-05 13:41 | -26.07262 | -50.61915 | 8266 ft | 166 kts | 252° |
| 2026-05-05 13:41 | -26.07686 | -50.63109 | 8265 ft | 166 kts | 253° |
| 2026-05-05 13:42 | -26.08105 | -50.64289 | 8262 ft | 165 kts | 253° |
| 2026-05-05 13:42 | -26.08527 | -50.65479 | 8265 ft | 165 kts | 253° |
| 2026-05-05 13:42 | -26.08950 | -50.66673 | 8264 ft | 165 kts | 253° |
| 2026-05-05 13:42 | -26.09368 | -50.67852 | 8264 ft | 165 kts | 253° |
| 2026-05-05 13:43 | -26.09791 | -50.69045 | 8268 ft | 165 kts | 253° |
| 2026-05-05 13:43 | -26.10214 | -50.70238 | 8267 ft | 165 kts | 253° |
| 2026-05-05 13:43 | -26.10631 | -50.71420 | 8267 ft | 166 kts | 253° |
| 2026-05-05 13:43 | -26.11057 | -50.72623 | 8265 ft | 165 kts | 253° |
| 2026-05-05 13:44 | -26.11478 | -50.73807 | 8264 ft | 164 kts | 253° |
| 2026-05-05 13:44 | -26.11898 | -50.74994 | 8263 ft | 165 kts | 253° |
| 2026-05-05 13:44 | -26.12312 | -50.76170 | 8265 ft | 165 kts | 253° |
| 2026-05-05 13:44 | -26.12734 | -50.77362 | 8263 ft | 166 kts | 253° |
| 2026-05-05 13:45 | -26.13155 | -50.78557 | 8263 ft | 166 kts | 253° |
| 2026-05-05 13:45 | -26.13580 | -50.79755 | 8263 ft | 166 kts | 253° |
| 2026-05-05 13:45 | -26.14001 | -50.80952 | 8265 ft | 166 kts | 253° |
| 2026-05-05 13:45 | -26.14424 | -50.82150 | 8265 ft | 166 kts | 253° |
| 2026-05-05 13:46 | -26.14842 | -50.83332 | 8263 ft | 166 kts | 253° |
| 2026-05-05 13:46 | -26.15265 | -50.84529 | 8264 ft | 166 kts | 253° |
| 2026-05-05 13:46 | -26.15689 | -50.85732 | 8263 ft | 166 kts | 253° |
| 2026-05-05 13:46 | -26.16105 | -50.86914 | 8262 ft | 166 kts | 253° |
| 2026-05-05 13:47 | -26.16528 | -50.88114 | 8262 ft | 165 kts | 253° |
| 2026-05-05 13:47 | -26.16951 | -50.89310 | 8261 ft | 165 kts | 253° |
| 2026-05-05 13:47 | -26.17365 | -50.90489 | 8259 ft | 165 kts | 253° |
| 2026-05-05 13:47 | -26.17787 | -50.91684 | 8260 ft | 166 kts | 253° |
| 2026-05-05 13:48 | -26.18207 | -50.92877 | 8264 ft | 165 kts | 253° |
| 2026-05-05 13:48 | -26.18628 | -50.94074 | 8263 ft | 165 kts | 253° |
| 2026-05-05 13:48 | -26.19045 | -50.95255 | 8261 ft | 165 kts | 253° |
| 2026-05-05 13:48 | -26.19464 | -50.96442 | 8269 ft | 164 kts | 253° |
| 2026-05-05 13:49 | -26.19878 | -50.97630 | 8269 ft | 164 kts | 252° |
| 2026-05-05 13:49 | -26.20297 | -50.98821 | 8267 ft | 164 kts | 252° |
| 2026-05-05 13:49 | -26.20711 | -50.99994 | 8266 ft | 164 kts | 252° |
| 2026-05-05 13:49 | -26.21129 | -51.01184 | 8266 ft | 165 kts | 252° |
| 2026-05-05 13:50 | -26.21541 | -51.02362 | 8264 ft | 165 kts | 253° |
| 2026-05-05 13:50 | -26.21961 | -51.03557 | 8263 ft | 166 kts | 252° |
| 2026-05-05 13:50 | -26.22382 | -51.04757 | 8263 ft | 166 kts | 252° |
| 2026-05-05 13:50 | -26.22803 | -51.05958 | 8263 ft | 166 kts | 252° |
| 2026-05-05 13:51 | -26.23218 | -51.07142 | 8262 ft | 166 kts | 252° |
| 2026-05-05 13:51 | -26.23642 | -51.08349 | 8261 ft | 166 kts | 252° |
| 2026-05-05 13:51 | -26.24066 | -51.09554 | 8260 ft | 167 kts | 252° |
| 2026-05-05 13:51 | -26.24485 | -51.10750 | 8259 ft | 167 kts | 252° |
| 2026-05-05 13:52 | -26.24907 | -51.11953 | 8261 ft | 166 kts | 252° |
| 2026-05-05 13:52 | -26.25325 | -51.13156 | 8260 ft | 166 kts | 252° |
| 2026-05-05 13:52 | -26.25749 | -51.14364 | 8258 ft | 167 kts | 253° |
| 2026-05-05 13:52 | -26.26165 | -51.15544 | 8261 ft | 165 kts | 252° |
| 2026-05-05 13:53 | -26.26584 | -51.16742 | 8259 ft | 166 kts | 252° |
| 2026-05-05 13:53 | -26.27007 | -51.17950 | 8258 ft | 167 kts | 252° |
| 2026-05-05 13:53 | -26.27427 | -51.19158 | 8256 ft | 166 kts | 252° |
| 2026-05-05 13:53 | -26.27843 | -51.20345 | 8259 ft | 166 kts | 252° |
| 2026-05-05 13:54 | -26.28262 | -51.21548 | 8262 ft | 166 kts | 252° |
| 2026-05-05 13:54 | -26.28684 | -51.22757 | 8259 ft | 166 kts | 252° |
| 2026-05-05 13:54 | -26.29098 | -51.23934 | 8263 ft | 165 kts | 253° |
| 2026-05-05 13:54 | -26.29514 | -51.25130 | 8262 ft | 165 kts | 252° |
| 2026-05-05 13:55 | -26.29932 | -51.26325 | 8259 ft | 165 kts | 252° |
| 2026-05-05 13:55 | -26.30343 | -51.27503 | 8257 ft | 164 kts | 252° |
| 2026-05-05 13:55 | -26.30760 | -51.28696 | 8258 ft | 164 kts | 253° |
| 2026-05-05 13:55 | -26.31174 | -51.29884 | 8257 ft | 164 kts | 252° |
| 2026-05-05 13:56 | -26.31583 | -51.31049 | 8266 ft | 161 kts | 252° |
| 2026-05-05 13:56 | -26.31988 | -51.32220 | 8266 ft | 160 kts | 253° |
| 2026-05-05 13:56 | -26.32389 | -51.33370 | 8268 ft | 161 kts | 252° |
| 2026-05-05 13:56 | -26.32799 | -51.34542 | 8263 ft | 161 kts | 253° |
| 2026-05-05 13:57 | -26.33202 | -51.35702 | 8263 ft | 159 kts | 253° |
| 2026-05-05 13:57 | -26.33607 | -51.36862 | 8261 ft | 161 kts | 252° |
| 2026-05-05 13:57 | -26.34008 | -51.38019 | 8266 ft | 163 kts | 252° |
| 2026-05-05 13:57 | -26.34420 | -51.39210 | 8269 ft | 166 kts | 252° |
| 2026-05-05 13:58 | -26.34841 | -51.40415 | 8272 ft | 166 kts | 252° |
| 2026-05-05 13:58 | -26.35259 | -51.41620 | 8265 ft | 166 kts | 252° |
| 2026-05-05 13:58 | -26.35670 | -51.42799 | 8263 ft | 164 kts | 253° |
| 2026-05-05 13:58 | -26.36085 | -51.43992 | 8260 ft | 164 kts | 253° |
| 2026-05-05 13:59 | -26.36914 | -51.46372 | 8255 ft | 164 kts | 252° |
| 2026-05-05 13:59 | -26.37321 | -51.47555 | 8256 ft | 164 kts | 253° |
| 2026-05-05 14:00 | -26.38141 | -51.49913 | 8258 ft | 164 kts | 253° |
| 2026-05-05 14:00 | -26.38414 | -51.50702 | 8256 ft | 164 kts | 252° |
| 2026-05-05 14:00 | -26.38966 | -51.52298 | 8259 ft | 165 kts | 253° |
| 2026-05-05 14:00 | -26.39381 | -51.53492 | 8256 ft | 165 kts | 252° |
| 2026-05-05 14:01 | -26.39790 | -51.54672 | 8260 ft | 165 kts | 252° |
| 2026-05-05 14:01 | -26.40209 | -51.55888 | 8258 ft | 168 kts | 252° |
| 2026-05-05 14:01 | -26.40632 | -51.57107 | 8259 ft | 168 kts | 252° |
| 2026-05-05 14:01 | -26.41054 | -51.58324 | 8262 ft | 168 kts | 252° |
| 2026-05-05 14:02 | -26.41469 | -51.59522 | 8258 ft | 166 kts | 253° |
| 2026-05-05 14:02 | -26.41881 | -51.60713 | 8255 ft | 162 kts | 252° |
| 2026-05-05 14:02 | -26.42291 | -51.61882 | 8252 ft | 162 kts | 252° |
| 2026-05-05 14:02 | -26.42697 | -51.63063 | 8248 ft | 163 kts | 253° |
| 2026-05-05 14:03 | -26.43098 | -51.64232 | 8244 ft | 164 kts | 252° |
| 2026-05-05 14:03 | -26.43508 | -51.65420 | 8246 ft | 163 kts | 252° |
| 2026-05-05 14:03 | -26.43918 | -51.66612 | 8244 ft | 164 kts | 252° |
| 2026-05-05 14:03 | -26.44334 | -51.67808 | 8245 ft | 165 kts | 253° |
| 2026-05-05 14:04 | -26.44742 | -51.68996 | 8255 ft | 167 kts | 253° |
| 2026-05-05 14:04 | -26.45163 | -51.70218 | 8250 ft | 168 kts | 253° |
| 2026-05-05 14:04 | -26.45583 | -51.71433 | 8253 ft | 167 kts | 253° |
| 2026-05-05 14:04 | -26.46003 | -51.72646 | 8244 ft | 167 kts | 253° |
| 2026-05-05 14:05 | -26.46415 | -51.73838 | 8248 ft | 167 kts | 252° |
| 2026-05-05 14:05 | -26.46770 | -51.75060 | 8246 ft | 163 kts | 269° |
| 2026-05-05 14:05 | -26.46349 | -51.76169 | 8266 ft | 160 kts | 320° |
| 2026-05-05 14:05 | -26.45251 | -51.76436 | 8169 ft | 174 kts | 9° |
| 2026-05-05 14:06 | -26.44141 | -51.75875 | 8006 ft | 179 kts | 24° |
| 2026-05-05 14:06 | -26.43129 | -51.75047 | 7833 ft | 185 kts | 48° |
| 2026-05-05 14:06 | -26.42510 | -51.73777 | 7673 ft | 187 kts | 64° |
| 2026-05-05 14:06 | -26.42027 | -51.72444 | 7509 ft | 187 kts | 65° |
| 2026-05-05 14:07 | -26.41537 | -51.71091 | 7342 ft | 187 kts | 64° |
| 2026-05-05 14:07 | -26.41048 | -51.69735 | 7181 ft | 188 kts | 65° |
| 2026-05-05 14:07 | -26.40561 | -51.68376 | 7018 ft | 189 kts | 65° |
| 2026-05-05 14:07 | -26.40069 | -51.67002 | 6856 ft | 192 kts | 65° |
| 2026-05-05 14:08 | -26.39582 | -51.65643 | 6682 ft | 189 kts | 65° |
| 2026-05-05 14:08 | -26.39094 | -51.64269 | 6526 ft | 191 kts | 65° |
| 2026-05-05 14:08 | -26.38603 | -51.62881 | 6350 ft | 193 kts | 65° |
| 2026-05-05 14:08 | -26.38103 | -51.61480 | 6169 ft | 192 kts | 65° |
| 2026-05-05 14:09 | -26.37719 | -51.60401 | 6037 ft | 188 kts | 65° |
| 2026-05-05 14:09 | -26.37396 | -51.59506 | 5926 ft | 188 kts | 65° |
| 2026-05-05 14:09 | -26.36918 | -51.58173 | 5754 ft | 191 kts | 65° |
| 2026-05-05 14:09 | -26.36424 | -51.56812 | 5578 ft | 188 kts | 65° |
| 2026-05-05 14:10 | -26.35940 | -51.55454 | 5421 ft | 188 kts | 65° |
| 2026-05-05 14:10 | -26.35469 | -51.54115 | 5263 ft | 184 kts | 65° |
| 2026-05-05 14:10 | -26.35009 | -51.52821 | 5257 ft | 176 kts | 65° |
| 2026-05-05 14:10 | -26.34567 | -51.51561 | 5257 ft | 173 kts | 65° |
| 2026-05-05 14:11 | -26.34133 | -51.50324 | 5245 ft | 168 kts | 65° |
| 2026-05-05 14:11 | -26.33712 | -51.49121 | 5251 ft | 167 kts | 65° |
| 2026-05-05 14:11 | -26.33295 | -51.47925 | 5248 ft | 167 kts | 65° |
| 2026-05-05 14:11 | -26.32877 | -51.46720 | 5252 ft | 169 kts | 65° |
| 2026-05-05 14:12 | -26.32460 | -51.45501 | 5253 ft | 167 kts | 65° |
| 2026-05-05 14:12 | -26.32046 | -51.44295 | 5254 ft | 166 kts | 65° |
| 2026-05-05 14:12 | -26.31639 | -51.43106 | 5256 ft | 164 kts | 65° |
| 2026-05-05 14:12 | -26.31226 | -51.41908 | 5271 ft | 166 kts | 65° |
| 2026-05-05 14:13 | -26.30814 | -51.40692 | 5257 ft | 167 kts | 65° |
| 2026-05-05 14:13 | -26.30403 | -51.39502 | 5258 ft | 166 kts | 65° |
| 2026-05-05 14:13 | -26.29991 | -51.38293 | 5257 ft | 166 kts | 65° |
| 2026-05-05 14:13 | -26.29578 | -51.37085 | 5260 ft | 167 kts | 65° |
| 2026-05-05 14:14 | -26.29229 | -51.35866 | 5260 ft | 168 kts | 80° |
| 2026-05-05 14:14 | -26.29217 | -51.34545 | 5266 ft | 171 kts | 89° |
| 2026-05-05 14:14 | -26.29237 | -51.33219 | 5264 ft | 170 kts | 88° |
| 2026-05-05 14:14 | -26.29259 | -51.31911 | 5264 ft | 171 kts | 89° |
| 2026-05-05 14:15 | -26.29277 | -51.30589 | 5262 ft | 170 kts | 88° |
| 2026-05-05 14:15 | -26.29303 | -51.29268 | 5260 ft | 170 kts | 89° |
| 2026-05-05 14:15 | -26.29330 | -51.27950 | 5258 ft | 169 kts | 89° |
| 2026-05-05 14:15 | -26.29354 | -51.26648 | 5260 ft | 170 kts | 89° |
| 2026-05-05 14:16 | -26.29365 | -51.25307 | 5261 ft | 173 kts | 89° |
| 2026-05-05 14:16 | -26.29380 | -51.23982 | 5259 ft | 172 kts | 89° |
| 2026-05-05 14:16 | -26.29393 | -51.22639 | 5275 ft | 175 kts | 89° |
| 2026-05-05 14:16 | -26.29400 | -51.21256 | 5252 ft | 177 kts | 89° |
| 2026-05-05 14:17 | -26.29416 | -51.19882 | 5249 ft | 176 kts | 89° |
| 2026-05-05 14:17 | -26.29432 | -51.18533 | 5250 ft | 175 kts | 89° |
| 2026-05-05 14:17 | -26.29454 | -51.17183 | 5250 ft | 173 kts | 89° |
| 2026-05-05 14:17 | -26.29474 | -51.15840 | 5247 ft | 172 kts | 89° |
| 2026-05-05 14:18 | -26.29480 | -51.14506 | 5254 ft | 171 kts | 83° |
| 2026-05-05 14:18 | -26.29278 | -51.13219 | 5256 ft | 171 kts | 75° |
| 2026-05-05 14:18 | -26.29010 | -51.11926 | 5251 ft | 171 kts | 74° |
| 2026-05-05 14:18 | -26.28738 | -51.10646 | 5252 ft | 167 kts | 73° |
| 2026-05-05 14:19 | -26.28486 | -51.09389 | 5257 ft | 168 kts | 74° |
| 2026-05-05 14:19 | -26.28225 | -51.08101 | 5256 ft | 171 kts | 75° |
| 2026-05-05 14:19 | -26.27967 | -51.06825 | 5251 ft | 169 kts | 75° |
| 2026-05-05 14:19 | -26.27702 | -51.05530 | 5251 ft | 168 kts | 75° |
| 2026-05-05 14:20 | -26.27446 | -51.04281 | 5270 ft | 167 kts | 75° |
| 2026-05-05 14:20 | -26.27182 | -51.02988 | 5270 ft | 173 kts | 74° |
| 2026-05-05 14:20 | -26.26919 | -51.01689 | 5269 ft | 175 kts | 75° |
| 2026-05-05 14:20 | -26.26643 | -51.00359 | 5265 ft | 174 kts | 71° |
| 2026-05-05 14:21 | -26.26251 | -50.99582 | 5257 ft | 174 kts | 42° |
| 2026-05-05 14:21 | -26.25227 | -50.99062 | 5241 ft | 161 kts | 358° |
| 2026-05-05 14:21 | -26.24224 | -50.99476 | 5131 ft | 152 kts | 321° |
| 2026-05-05 14:21 | -26.23451 | -51.00257 | 5032 ft | 149 kts | 302° |
| 2026-05-05 14:22 | -26.23484 | -51.01739 | 4887 ft | 158 kts | 239° |
| 2026-05-05 14:22 | -26.24038 | -51.02256 | 4811 ft | 164 kts | 210° |
| 2026-05-05 14:22 | -26.25048 | -51.02832 | 4717 ft | 160 kts | 214° |
| 2026-05-05 14:22 | -26.25935 | -51.03557 | 4618 ft | 155 kts | 230° |
| 2026-05-05 14:23 | -26.26588 | -51.04500 | 4522 ft | 156 kts | 252° |
| 2026-05-05 14:23 | -26.26469 | -51.05653 | 4427 ft | 155 kts | 305° |
| 2026-05-05 14:23 | -26.25582 | -51.06298 | 4302 ft | 155 kts | 340° |
| 2026-05-05 14:23 | -26.24547 | -51.06666 | 4112 ft | 157 kts | 338° |
| 2026-05-05 14:24 | -26.23567 | -51.07231 | 3878 ft | 160 kts | 328° |
| 2026-05-05 14:24 | -26.22645 | -51.07941 | 3588 ft | 161 kts | 323° |
| 2026-05-05 14:24 | -26.21787 | -51.08693 | 3185 ft | 157 kts | 320° |
| 2026-05-05 14:24 | -26.20912 | -51.09222 | 3119 ft | 134 kts | 0° |
| 2026-05-05 14:25 | -26.20250 | -51.08667 | 3032 ft | 120 kts | 79° |
| 2026-05-05 14:25 | -26.20536 | -51.07944 | 3082 ft | 102 kts | 152° |
| 2026-05-05 14:25 | -26.21181 | -51.07748 | 3013 ft | 100 kts | 167° |
| 2026-05-05 14:25 | -26.21877 | -51.07504 | 2735 ft | 106 kts | 157° |
| 2026-05-05 14:26 | -26.22528 | -51.07153 | 2573 ft | 100 kts | 152° |
| 2026-05-05 14:26 | -26.23110 | -51.06797 | 2465 ft | 92 kts | 151° |
| 2026-05-05 14:26 | -26.23577 | -51.06518 | 2463 ft | 38 kts | 151° |
| 2026-05-05 14:26 | -26.23669 | -51.06466 | 2463 ft | 5 kts | 128° |
| 2026-05-05 14:27 | -26.23614 | -51.06489 | 2463 ft | 17 kts | 329° |
| 2026-05-05 14:27 | -26.23488 | -51.06571 | 2460 ft | 13 kts | 330° |
| 2026-05-05 14:27 | -26.23439 | -51.06602 | 2459 ft | 6 kts | 331° |
| 2026-05-05 14:27 | -26.23378 | -51.06640 | 2459 ft | 15 kts | 330° |
| 2026-05-05 14:28 | -26.23321 | -51.06675 | 2463 ft | 6 kts | 331° |
| 2026-05-05 14:28 | -26.23285 | -51.06697 | 2461 ft | 9 kts | 331° |
| 2026-05-05 14:28 | -26.23198 | -51.06752 | 2460 ft | 20 kts | 330° |
| 2026-05-05 14:28 | -26.23055 | -51.06840 | 2464 ft | 21 kts | 332° |
| 2026-05-05 14:29 | -26.22979 | -51.06879 | 2466 ft | 5 kts | 5° |
| 2026-05-05 14:29 | -26.22966 | -51.06869 | 2466 ft | 0 kts | 48° |
| 2026-05-05 14:30 | -26.22947 | -51.06836 | 2462 ft | 6 kts | 60° |
| 2026-05-05 14:30 | -26.22921 | -51.06824 | 2465 ft | 5 kts | 336° |
| 2026-05-05 14:30 | -26.22917 | -51.06826 | 2465 ft | 0 kts | 334° |